Nearby METAR Reports

 

EBAW - Antwerp/Deurne, Belgium
Distance from station: ZZO 9km
Ververst: 15/04/2024 16:50
Meestal bewolkt
Meestal bewolkt
 Wind van W
Wind: W 24 km/h, Windvlaag: 46 km/h
Temperatuur: 8°C
Gevoelstemp.: 4°C
Dauwpunt: 3°C
Vochtigheid: 71%
Barometer: 1004 hPa
Clouds: Meestal bewolkt
Visibility: 10 km
Cloud details: Few Clouds 579 m
Meestal bewolkt 1372 m
2024/04/15 14:50 EBAW 151450Z 26013G25KT 9999 FEW019TCU BKN045 08/03 Q1004 TEMPO 4000 SHRA
EHWO - Woensdrecht Rnla, Netherlands
Distance from station: NNW 20km
Ververst: 15/04/2024 16:55
Meestal bewolkt
Meestal bewolkt
 Wind van W
Wind: W 31 km/h, Windvlaag: 59 km/h
Temperatuur: 8°C
Gevoelstemp.: 3°C
Dauwpunt: 2°C
Vochtigheid: 66%
Barometer: 1003 hPa
Clouds: Meestal bewolkt
Visibility: 10 km
Cloud details: Few Clouds 549 m
Few Clouds 762 m
Gedeeltelijk bewolkt 945 m
Meestal bewolkt 1128 m
2024/04/15 14:55 EHWO 151455Z AUTO 28017G32KT 220V320 9999 FEW018 FEW025CB SCT031 BKN037 08/02 Q1003 BLU
 
EBBR - Brussels Nationa, Belgium
Distance from station: Z 43km
Ververst: 15/04/2024 16:50
Meestal bewolkt
Meestal bewolkt
 Wind van W
Wind: W 41 km/h, Windvlaag: 61 km/h
Temperatuur: 7°C
Gevoelstemp.: 2°C
Dauwpunt: 3°C
Vochtigheid: 76%
Barometer: 1005 hPa
Clouds: Meestal bewolkt
Visibility: 10 km
Cloud details: Few Clouds 427 m
Meestal bewolkt 1494 m
2024/04/15 14:50 EBBR 151450Z 27022G33KT 9999 FEW014CB BKN049 07/03 Q1005 TEMPO 3500 SHRAGS
EHGR - Gilze-Rijen Rnla, Netherlands
Distance from station: NO 47km
Ververst: 15/04/2024 16:55
Meestal bewolkt
Meestal bewolkt
 Wind van W
Wind: W 31 km/h, Windvlaag: 57 km/h
Temperatuur: 9°C
Gevoelstemp.: 5°C
Dauwpunt: 4°C
Vochtigheid: 71%
Barometer: 1002 hPa
Clouds: Meestal bewolkt
Visibility: 10 km
Cloud details: Few Clouds 792 m
Gedeeltelijk bewolkt 1250 m
Meestal bewolkt 1615 m
2024/04/15 14:55 EHGR 151455Z AUTO 27017G31KT 240V310 9999 FEW026 SCT041 BKN053 09/04 Q1002 BLU NOSIG
 
EBDT - Schaffen, Belgium
Distance from station: OZO 54km
Ververst: 15/04/2024 16:55

 Wind van W
Wind: W 26 km/h
Temperatuur: 7°C
Gevoelstemp.: 3°C
Dauwpunt: 5°C
Vochtigheid: 87%
Barometer: 1004 hPa
Visibility: 10 km
2024/04/15 14:55 EBDT 151455Z AUTO 26014KT 9999 /// 07/05 Q1004 BLU
EHFS - Vlissingen, Netherlands
Distance from station: WNW 60km
Ververst: 15/04/2024 16:55
Few Clouds
Few Clouds
 Wind van W
Wind: W 46 km/h
Temperatuur: 9°C
Gevoelstemp.: 4°C
Dauwpunt: 3°C
Vochtigheid: 66%
Barometer: 1003 hPa
Clouds: Few Clouds
Visibility: 10 km
Cloud details: Few Clouds 884 m
2024/04/15 14:55 EHFS 151455Z AUTO 28025KT 240V310 9999 FEW029/// 09/03 Q1003
 
EBBE - Beauvechain (baf, Belgium
Distance from station: ZZO 64km
Ververst: 15/04/2024 16:55
Regen, Meestal bewolkt
Regen, Meestal bewolkt
 Wind van varies
Wind: varies 0 km/h
Temperatuur: 5°C
Dauwpunt: 3°C
Vochtigheid: 87%
Barometer: 1005 hPa
Overzicht: Regen
Clouds: Meestal bewolkt
Visibility: 5 km
Cloud details: Few Clouds 305 m
Gedeeltelijk bewolkt 853 m
Meestal bewolkt 1036 m
2024/04/15 14:55 EBBE 151455Z AUTO //////KT 5000 RA FEW010/// SCT028/// BKN034/// 05/03 Q1005 WHT
EHEH - Eindhoven Rnlafb, Netherlands
Distance from station: ONO 69km
Ververst: 15/04/2024 17:01
Gedeeltelijk bewolkt
Gedeeltelijk bewolkt
 Wind van WZW
Wind: WZW 24 km/h
Temperatuur: 8°C
Gevoelstemp.: 4°C
Dauwpunt: 6°C
Vochtigheid: 87%
Barometer: 1002 hPa
Clouds: Gedeeltelijk bewolkt
Visibility: 10 km
Cloud details: Few Clouds 335 m
Gedeeltelijk bewolkt 2743 m
2024/04/15 15:01 EHEH 151501Z AUTO 25013KT 210V300 9999 FEW011 SCT090 08/06 Q1002 BLU TEMPO 22020G35KT SCT015 SCT020CB
 
EBBL - Kleine-Brogel(Ba, Belgium
Distance from station: O 74km
Ververst: 12/04/2024 17:25
NOT Current
Few Clouds
Few Clouds
 Wind van WZW
Wind: WZW 22 km/h
Temperatuur: 21°C
Dauwpunt: 11°C
Vochtigheid: 53%
Barometer: 1029 hPa
Clouds: Few Clouds
Visibility: 10 km
Cloud details: Few Clouds 1341 m
2024/04/12 15:25 EBBL 121525Z AUTO 24012KT 9999 FEW044/// 21/11 Q1029 BLU
EHRD - Rotterdam Airpor, Netherlands
Distance from station: N 75km
Ververst: 15/04/2024 16:55
Zwaar bewolkt
Zwaar bewolkt
 Wind van W
Wind: W 37 km/h, Windvlaag: 57 km/h
Temperatuur: 9°C
Gevoelstemp.: 4°C
Dauwpunt: 3°C
Vochtigheid: 66%
Barometer: 1001 hPa
Clouds: Zwaar bewolkt
Visibility: 10 km
Cloud details: Gedeeltelijk bewolkt 914 m
Meestal bewolkt 1036 m
Zwaar bewolkt 1189 m
2024/04/15 14:55 EHRD 151455Z AUTO 27020G31KT 240V320 9999 SCT030/// BKN034/// OVC039/// 09/03 Q1001 NOSIG
 
EHSC - Goeree Le Sea, Netherlands
Distance from station: NW 89km
Ververst: 15/04/2024 16:55

 Wind van W
Wind: W 67 km/h
Temperatuur: 9°C
Gevoelstemp.: 3°C
Dauwpunt: 4°C
Vochtigheid: 71%
Barometer: 1002 hPa
Visibility: 10 km
2024/04/15 14:55 EHSC 151455Z AUTO 28036KT 9999 ///////// 09/04 Q1002 W11/H25
EBCI - Charleroi/Gossel, Belgium
Distance from station: Z 90km
Ververst: 15/04/2024 16:50
Few Clouds
Few Clouds
 Wind van ZW
Wind: ZW 31 km/h, Windvlaag: 50 km/h
Temperatuur: 6°C
Gevoelstemp.: 1°C
Dauwpunt: 3°C
Vochtigheid: 81%
Barometer: 1006 hPa
Clouds: Few Clouds
Visibility: 10 km
Cloud details: Few Clouds 823 m
2024/04/15 14:50 EBCI 151450Z 23017G27KT 9999 FEW027 06/03 Q1006 WS ALL RWY NOSIG
 
EBCV - Chievres Ab, Belgium
Distance from station: ZZW 90km
Ververst: 15/04/2024 17:03
Lichte regen, Meestal bewolkt
Lichte regen, Meestal bewolkt
 Wind van NW
Wind: NW 41 km/h, Windvlaag: 69 km/h
Temperatuur: 5°C
Gevoelstemp.: -1°C
Dauwpunt: 2°C
Vochtigheid: 81%
Barometer: 1007 hPa
Overzicht: Lichte regen
Clouds: Meestal bewolkt
Visibility: 7 km
Cloud details: Few Clouds 640 m
Gedeeltelijk bewolkt 975 m
Meestal bewolkt 1189 m
2024/04/15 15:03 EBCV 151503Z AUTO 31022G37KT 7000 -RA FEW021/// SCT032/// BKN039/// 05/02 Q1007 WHT
EHVK - Volkel Rnlafb, Netherlands
Distance from station: ONO 97km
Ververst: 15/04/2024 17:05
Meestal bewolkt
Meestal bewolkt
 Wind van WZW
Wind: WZW 24 km/h
Temperatuur: 7°C
Gevoelstemp.: 3°C
Dauwpunt: 5°C
Vochtigheid: 87%
Barometer: 1001 hPa
Clouds: Meestal bewolkt
Visibility: 10 km
Cloud details: Few Clouds 305 m
Gedeeltelijk bewolkt 427 m
Meestal bewolkt 518 m
2024/04/15 15:05 EHVK 151505Z AUTO 25013KT 220V280 9999 FEW010 SCT014 BKN017 07/05 Q1001 GRN
 
EBLG - Bierset/Liege (c, Belgium
Distance from station: ZO 102km
Ververst: 15/04/2024 16:50
Lichte regen, Showers, Few clouds
Lichte regen, Showers, Few clouds
 Wind van WZW
Wind: WZW 26 km/h
Temperatuur: 4°C
Gevoelstemp.: -1°C
Dauwpunt: 2°C
Vochtigheid: 87%
Barometer: 1005 hPa
Overzicht: Lichte regen, Showers
Clouds: Few Clouds
Visibility: 10 km
Cloud details: Few Clouds 244 m
Few Clouds 549 m
2024/04/15 14:50 EBLG 151450Z 25014KT 9999 -SHRA FEW008 FEW018TCU 04/02 Q1005 NOSIG
EHBK - Zuid-Limburg/Bee, Netherlands
Distance from station: OZO 102km
Ververst: 15/04/2024 16:55
Light drizzle, Meestal bewolkt
Light drizzle, Meestal bewolkt
 Wind van WZW
Wind: WZW 20 km/h
Temperatuur: 5°C
Gevoelstemp.: 1°C
Dauwpunt: 3°C
Vochtigheid: 87%
Barometer: 1004 hPa
Overzicht: Light Drizzle
Clouds: Meestal bewolkt
Visibility: 10 km
Cloud details: Few Clouds 91 m
Meestal bewolkt 518 m
Meestal bewolkt 610 m
2024/04/15 14:55 EHBK 151455Z AUTO 24011KT 210V290 9999 -DZ FEW003 BKN017 BKN020 05/03 Q1004 TEMPO 7000 -SHRA FEW020CB
 
EBOS - Oostende Airport, Belgium
Distance from station: W 108km
Ververst: 15/04/2024 16:50
Gedeeltelijk bewolkt
Gedeeltelijk bewolkt
 Wind van NW
Wind: NW 48 km/h, Windvlaag: 69 km/h
Temperatuur: 9°C
Gevoelstemp.: 4°C
Dauwpunt: 3°C
Vochtigheid: 66%
Barometer: 1005 hPa
Clouds: Gedeeltelijk bewolkt
Visibility: 10 km
Cloud details: Gedeeltelijk bewolkt 549 m
2024/04/15 14:50 EBOS 151450Z 31026G37KT 9999 SCT018CB 09/03 Q1005 TEMPO 3500 SHRA
EHSA - Euro Platform, Netherlands
Distance from station: NW 112km
Ververst: 15/04/2024 16:55

 Wind van W
Wind: W 61 km/h
Temperatuur: 9°C
Gevoelstemp.: 3°C
Dauwpunt: 3°C
Vochtigheid: 66%
Barometer: 1002 hPa
Visibility: 10 km
2024/04/15 14:55 EHSA 151455Z AUTO 26033KT 9999 ///////// 09/03 Q1002 W11/H28
 
EHAM - Amsterdam/Schiph, Netherlands
Distance from station: NNO 118km
Ververst: 15/04/2024 16:55
Gedeeltelijk bewolkt
Gedeeltelijk bewolkt
 Wind van W
Wind: W 41 km/h
Temperatuur: 8°C
Gevoelstemp.: 3°C
Dauwpunt: 4°C
Vochtigheid: 76%
Barometer: 999 hPa
Clouds: Gedeeltelijk bewolkt
Visibility: 10 km
Cloud details: Few Clouds 396 m
Few Clouds 610 m
Gedeeltelijk bewolkt 762 m
2024/04/15 14:55 EHAM 151455Z 27022KT 250V310 9999 FEW013 FEW020CB SCT025 08/04 Q0999 REGSRA TEMPO 29027G38KT 6000 TSRAGS
ETNG - Geilenkirchen(Na, Germany
Distance from station: OZO 118km
Ververst: 15/04/2024 17:06
Meestal bewolkt
Meestal bewolkt
 Wind van WZW
Wind: WZW 26 km/h
Temperatuur: 5°C
Gevoelstemp.: 1°C
Dauwpunt: 3°C
Vochtigheid: 87%
Barometer: 1004 hPa
Clouds: Meestal bewolkt
Visibility: 10 km
Cloud details: Meestal bewolkt 366 m
Meestal bewolkt 914 m
2024/04/15 15:06 ETNG 151506Z 25014KT 9999 BKN012 BKN030 05/03 Q1004 TEMPO -SHRA